King Hill, Idaho
Current Conditions -  °F | °C
As of 12:58 AM on Friday 28 Nov 2014 (Local Time) from KMUO Reporting Station
Scattered Clouds Scattered Clouds  
Wind Chill: 38°   Ceiling: Unl
Heat Index: 38°   Visibility: 10mi
Dew Point: 38°   Wind: 3mph
Humidity: 99%   Direction: NA
Pressure: 29.97"   Gusts: NA
Location:  43°N, 115.21°W
Report Text: KMUO 280758Z AUTO VRB03KT 10SM SCT210 03/03 A2997 RMK AO2 SLP152 T00340033
Loading
Personal Weather Stations






























Interactive Weather Map New forecast layout! Learn more

10-Day Weather Forecast

Advertisements
Track Severe Weather on mobile